Time;durP1;ratioP1;P1;durP2;ratioP2;P2;SDS_P1;SDS_P2;PMS_P1;PMS_P2;Temp;Humidity;BMP_temperature;BMP_pressure;BME280_temperature;BME280_humidity;BME280_pressure;Samples;Min_cycle;Max_cycle;Signal;HPM_P1;HPM_P2
2022/06/14 00:01:21;;;;;;;1.50;0.77;;;;;;;21.95;40.10;102372.94;5108275;28;20046;-64
2022/06/14 00:03:46;;;;;;;3.38;1.08;;;;;;;21.96;40.45;102377.34;5108219;28;20086;-64
2022/06/14 00:06:25;;;;;;;2.00;1.02;;;;;;;21.92;40.22;102375.97;5108078;28;20366;-64
2022/06/14 00:08:51;;;;;;;3.10;1.10;;;;;;;21.92;40.27;102382.25;5110990;28;20099;-64
2022/06/14 00:11:19;;;;;;;2.58;1.00;;;;;;;21.93;40.43;102389.38;5096503;28;20114;-64
2022/06/14 00:13:46;;;;;;;2.33;0.77;;;;;;;21.93;40.23;102392.06;5107794;28;20024;-64
2022/06/14 00:16:12;;;;;;;2.40;0.93;;;;;;;21.92;40.02;102389.53;5108159;28;20028;-64
2022/06/14 00:18:37;;;;;;;1.60;0.98;;;;;;;21.91;40.26;102388.66;5088717;28;20020;-64
2022/06/14 00:21:03;;;;;;;1.55;0.88;;;;;;;21.91;40.38;102387.78;5107558;28;20028;-64
2022/06/14 00:23:29;;;;;;;3.88;1.25;;;;;;;21.90;39.91;102388.81;5090928;28;20225;-64
2022/06/14 00:25:56;;;;;;;1.60;0.80;;;;;;;21.90;40.00;102383.41;5107818;28;20020;-64
2022/06/14 00:28:23;;;;;;;2.30;1.00;;;;;;;21.89;40.31;102396.09;5107870;28;20027;-64
2022/06/14 00:30:52;;;;;;;1.95;0.95;;;;;;;21.88;39.92;102397.09;5107454;28;20042;-64
2022/06/14 00:33:17;;;;;;;1.88;0.70;;;;;;;21.88;40.13;102393.53;5107718;28;20040;-64
2022/06/14 00:35:43;;;;;;;1.88;1.00;;;;;;;21.87;40.17;102392.66;5107361;28;20035;-64
2022/06/14 00:38:13;;;;;;;2.13;1.17;;;;;;;21.87;39.75;102397.22;5107761;28;20032;-64
2022/06/14 00:40:39;;;;;;;3.08;0.82;;;;;;;21.85;39.88;102388.41;5107371;28;20034;-64
2022/06/14 00:43:14;;;;;;;1.90;0.73;;;;;;;21.84;40.28;102394.84;5107239;28;20493;-64
2022/06/14 00:45:39;;;;;;;2.80;1.05;;;;;;;21.83;39.78;102393.97;5113549;28;20055;-64
2022/06/14 00:48:09;;;;;;;2.08;0.80;;;;;;;21.83;40.01;102388.56;5127966;28;20019;-64
2022/06/14 00:50:40;;;;;;;2.28;1.30;;;;;;;21.83;39.78;102390.41;5108778;28;20019;-64
2022/06/14 00:53:27;;;;;;;3.55;1.02;;;;;;;21.82;39.76;102386.84;5109725;28;20028;-64
2022/06/14 00:55:59;;;;;;;1.83;0.77;;;;;;;21.79;39.88;102383.59;5127722;28;20020;-64
2022/06/14 00:58:29;;;;;;;2.03;0.80;;;;;;;21.79;39.72;102386.31;5109541;28;20056;-64
2022/06/14 01:00:55;;;;;;;2.42;1.00;;;;;;;21.78;39.93;102382.75;5127530;28;20023;-64
2022/06/14 01:03:23;;;;;;;1.92;0.73;;;;;;;21.76;39.75;102379.34;5113214;28;20111;-63
2022/06/14 01:06:05;;;;;;;2.58;0.70;;;;;;;21.70;39.91;102372.66;5106678;28;20032;-64
2022/06/14 01:08:31;;;;;;;2.55;1.10;;;;;;;21.77;39.95;102389.19;5107208;28;20452;-63
2022/06/14 01:10:56;;;;;;;2.92;0.70;;;;;;;21.76;39.85;102382.06;5097599;28;20034;-64
2022/06/14 01:13:22;;;;;;;2.70;1.00;;;;;;;21.76;39.89;102384.78;5127064;28;20104;-63
2022/06/14 01:15:53;;;;;;;2.35;0.90;;;;;;;21.73;39.87;102376.94;5127379;28;20032;-63
2022/06/14 01:18:18;;;;;;;1.77;0.60;;;;;;;21.76;39.70;102378.50;5109285;28;20503;-64
2022/06/14 01:20:44;;;;;;;1.55;0.75;;;;;;;21.74;39.90;102378.63;5106901;28;20028;-63
2022/06/14 01:23:11;;;;;;;1.83;0.57;;;;;;;21.73;39.63;102370.69;5088816;28;20099;-64
2022/06/14 01:25:41;;;;;;;1.80;0.80;;;;;;;21.73;39.70;102376.94;5092882;28;20027;-64
2022/06/14 01:28:08;;;;;;;2.17;0.80;;;;;;;21.72;39.66;102386.06;5108610;28;20027;-63
2022/06/14 01:30:38;;;;;;;1.52;0.75;;;;;;;21.66;40.05;102381.25;5126721;28;20026;-63
2022/06/14 01:33:09;;;;;;;2.45;0.85;;;;;;;21.66;39.92;102376.72;5127016;28;20023;-62
2022/06/14 01:35:36;;;;;;;2.00;0.73;;;;;;;21.68;39.94;102371.13;5125572;28;20409;-63
2022/06/14 01:38:05;;;;;;;2.35;0.93;;;;;;;21.67;39.56;102378.41;5088485;28;20039;-64
2022/06/14 01:40:54;;;;;;;1.77;0.70;;;;;;;21.65;39.72;102368.72;5088068;28;20095;-64
2022/06/14 01:43:51;;;;;;;1.88;0.70;;;;;;;21.64;39.62;102358.91;5049084;28;20077;-64
2022/06/14 01:46:23;;;;;;;1.75;0.85;;;;;;;21.64;39.65;102362.47;5106323;28;20538;-64
2022/06/14 01:52:04;;;;;;;1.30;1.05;;;;;;;21.61;39.42;102360.06;5106349;28;20070;-64
2022/06/14 01:54:38;;;;;;;1.30;0.55;;;;;;;21.61;39.53;102362.75;5088164;28;20032;-63
2022/06/14 01:57:08;;;;;;;1.75;0.85;;;;;;;21.60;39.62;102357.50;5106193;28;20024;-62
2022/06/14 01:59:58;;;;;;;1.52;0.80;;;;;;;21.59;39.69;102355.81;5105925;28;20031;-63
2022/06/14 02:02:26;;;;;;;2.58;1.00;;;;;;;21.53;39.62;102348.28;5105897;28;20055;-63
2022/06/14 02:05:10;;;;;;;2.67;0.70;;;;;;;21.57;39.69;102352.38;5105599;28;20028;-63
2022/06/14 02:08:16;;;;;;;2.03;0.65;;;;;;;21.39;39.39;102328.84;5106122;28;20251;-64
2022/06/14 02:11:08;;;;;;;1.88;0.70;;;;;;;21.55;39.42;102357.13;5103248;28;20047;-64
2022/06/14 02:13:53;;;;;;;2.30;0.60;;;;;;;21.52;39.45;102352.84;5107714;28;20087;-64
2022/06/14 02:16:34;;;;;;;2.05;1.17;;;;;;;21.51;39.47;102353.00;5108209;28;20078;-64
2022/06/14 02:19:14;;;;;;;1.90;0.82;;;;;;;21.45;39.65;102343.63;5090991;28;20128;-64
2022/06/14 02:21:49;;;;;;;3.00;1.20;;;;;;;21.52;39.49;102352.00;5126311;28;20423;-64
2022/06/14 02:24:18;;;;;;;1.73;0.63;;;;;;;21.51;39.50;102358.41;5107973;28;20024;-62
2022/06/14 02:26:51;;;;;;;1.92;0.50;;;;;;;21.50;39.29;102357.56;5096171;28;20039;-62
2022/06/14 02:29:37;;;;;;;1.33;0.80;;;;;;;21.46;39.35;102348.91;5105556;28;20489;-63
2022/06/14 02:32:07;;;;;;;1.33;0.50;;;;;;;21.48;39.35;102359.56;5105365;28;20028;-61
2022/06/14 02:34:42;;;;;;;1.10;0.52;;;;;;;21.48;39.67;102359.56;5087015;28;20031;-63
2022/06/14 02:37:11;;;;;;;1.45;0.65;;;;;;;21.46;39.50;102354.31;5105904;28;20027;-63
2022/06/14 02:39:40;;;;;;;1.02;0.60;;;;;;;21.45;39.46;102349.03;5087196;28;20039;-63
2022/06/14 02:42:12;;;;;;;0.75;0.52;;;;;;;21.44;39.35;102344.63;5086689;28;20071;-63
2022/06/14 02:44:41;;;;;;;0.98;0.60;;;;;;;21.44;39.51;102344.63;5105630;28;20066;-63
2022/06/14 02:47:16;;;;;;;1.35;0.60;;;;;;;21.43;39.19;102341.06;5087269;28;20043;-63
2022/06/14 02:49:53;;;;;;;1.60;0.70;;;;;;;21.43;39.50;102349.19;5087067;28;20091;-63
2022/06/14 02:52:21;;;;;;;1.77;0.63;;;;;;;21.43;39.43;102334.81;5087170;28;20031;-63
2022/06/14 02:55:12;;;;;;;1.65;0.68;;;;;;;21.42;39.29;102335.81;5105391;28;20020;-63
2022/06/14 02:57:50;;;;;;;1.30;0.60;;;;;;;21.33;39.34;102320.50;5087472;28;20028;-63
2022/06/14 03:00:19;;;;;;;2.92;0.60;;;;;;;21.40;39.38;102338.66;5086890;28;20051;-63
2022/06/14 03:02:53;;;;;;;2.53;0.80;;;;;;;21.38;39.21;102329.84;5087340;28;20083;-62
2022/06/14 03:05:36;;;;;;;2.60;1.10;;;;;;;21.38;39.29;102335.25;5086930;28;20034;-63
2022/06/14 03:08:09;;;;;;;1.08;0.60;;;;;;;21.37;39.06;102341.69;5087461;28;20020;-63
2022/06/14 03:11:05;;;;;;;1.90;0.80;;;;;;;21.34;39.55;102339.28;5094994;28;20019;-62
2022/06/14 03:13:56;;;;;;;1.40;0.60;;;;;;;21.33;39.04;102326.75;5107214;28;20073;-63
2022/06/14 03:16:38;;;;;;;2.03;0.60;;;;;;;21.31;39.35;102331.41;5107210;28;20015;-63
2022/06/14 03:19:23;;;;;;;0.93;0.68;;;;;;;21.33;39.06;102343.00;5125346;28;20027;-62
2022/06/14 03:21:51;;;;;;;1.80;0.70;;;;;;;21.30;39.38;102340.53;5125394;28;20048;-63
2022/06/14 03:24:27;;;;;;;2.57;0.87;;;;;;;21.29;39.27;102328.03;5125345;28;20019;-63
2022/06/14 03:27:23;;;;;;;1.35;0.73;;;;;;;21.29;39.21;102335.28;5110522;28;20370;-63
2022/06/14 03:29:55;;;;;;;1.35;0.60;;;;;;;21.28;39.07;102325.44;5104826;28;20035;-64
2022/06/14 03:32:28;;;;;;;1.98;0.60;;;;;;;21.21;39.17;102322.50;5104979;28;20059;-62
2022/06/14 03:35:04;;;;;;;0.98;0.50;;;;;;;21.27;39.28;102318.34;5086657;28;20049;-63
2022/06/14 03:37:29;;;;;;;5.00;1.48;;;;;;;21.25;39.04;102328.47;5087108;28;20087;-63
2022/06/14 03:40:00;;;;;;;0.70;0.55;;;;;;;21.17;39.05;102299.47;5104810;28;20031;-63
2022/06/14 03:42:25;;;;;;;1.15;0.70;;;;;;;21.25;38.90;102317.66;5086419;28;20040;-63
2022/06/14 03:44:51;;;;;;;2.30;0.60;;;;;;;21.14;39.37;102310.56;5104781;28;20031;-63
2022/06/14 03:47:21;;;;;;;1.48;0.70;;;;;;;21.23;39.28;102313.22;5105093;28;20042;-63
2022/06/14 03:50:08;;;;;;;1.42;0.60;;;;;;;21.23;39.01;102315.09;5104282;28;20048;-62
2022/06/14 03:52:48;;;;;;;2.17;1.00;;;;;;;21.22;39.05;102311.53;5105649;28;20103;-63
2022/06/14 03:55:55;;;;;;;1.38;0.40;;;;;;;21.22;39.30;102326.91;5090305;28;20031;-63
2022/06/14 03:58:26;;;;;;;1.08;0.60;;;;;;;21.21;39.10;102327.91;5108704;28;20058;-64
2022/06/14 04:00:58;;;;;;;1.88;0.80;;;;;;;21.19;39.06;102328.06;5089903;28;20400;-63
2022/06/14 04:03:49;;;;;;;1.75;0.55;;;;;;;21.19;39.37;102329.91;5090149;28;20469;-62
2022/06/14 04:06:45;;;;;;;1.40;0.70;;;;;;;21.19;39.35;102329.91;5089733;28;20123;-64
2022/06/14 04:09:32;;;;;;;1.77;0.55;;;;;;;21.17;39.05;102330.06;5090089;28;20012;-63
2022/06/14 04:12:06;;;;;;;1.40;0.70;;;;;;;21.17;39.35;102331.94;5108824;28;20047;-64
2022/06/14 04:14:50;;;;;;;1.02;0.60;;;;;;;21.17;39.06;102329.22;5128510;28;20047;-64
2022/06/14 04:17:23;;;;;;;1.15;0.60;;;;;;;21.16;39.07;102333.78;5110910;28;20019;-63
2022/06/14 04:19:56;;;;;;;1.40;0.70;;;;;;;21.15;39.04;102328.50;5108353;28;20102;-63
2022/06/14 04:22:40;;;;;;;0.93;0.50;;;;;;;21.10;39.32;102328.09;5090023;28;20044;-63
2022/06/14 04:25:14;;;;;;;2.15;0.63;;;;;;;21.14;39.31;102334.91;5089896;28;20168;-63
2022/06/14 04:27:52;;;;;;;1.73;0.60;;;;;;;21.13;39.24;102327.81;5108100;28;20024;-63
2022/06/14 04:30:26;;;;;;;1.92;0.73;;;;;;;21.13;39.59;102339.47;5089604;28;20028;-63
2022/06/14 04:33:02;;;;;;;2.08;0.50;;;;;;;21.13;39.64;102341.34;5089834;28;20023;-63
2022/06/14 04:35:38;;;;;;;1.25;0.60;;;;;;;21.12;39.41;102339.63;5089119;28;20031;-62
2022/06/14 04:38:12;;;;;;;2.03;0.80;;;;;;;21.11;39.26;102346.03;5089645;28;20500;-61
2022/06/14 04:40:43;;;;;;;2.65;1.17;;;;;;;21.10;39.25;102339.75;5089948;28;20103;-63
2022/06/14 04:43:11;;;;;;;0.93;0.73;;;;;;;21.02;39.46;102330.69;5097712;28;20050;-62
2022/06/14 04:45:45;;;;;;;2.08;0.93;;;;;;;21.02;39.30;102339.66;5089663;28;20382;-64
2022/06/14 04:48:15;;;;;;;1.38;0.50;;;;;;;21.09;39.71;102354.28;5107783;28;20028;-62
2022/06/14 04:51:03;;;;;;;2.22;0.80;;;;;;;21.09;39.63;102358.84;5088832;28;20019;-63
2022/06/14 04:53:35;;;;;;;1.60;0.60;;;;;;;21.08;39.53;102352.59;5089647;28;20053;-62
2022/06/14 04:56:05;;;;;;;2.17;0.63;;;;;;;21.02;39.45;102346.91;5107245;28;20572;-62
2022/06/14 04:58:40;;;;;;;2.97;1.10;;;;;;;21.08;39.47;102358.00;5107602;28;20424;-62
2022/06/14 05:01:18;;;;;;;1.83;0.60;;;;;;;21.08;39.46;102349.03;5088888;28;20083;-62
2022/06/14 05:03:54;;;;;;;4.03;0.80;;;;;;;21.08;39.79;102349.91;5088006;28;20077;-64
2022/06/14 05:06:28;;;;;;;1.52;0.77;;;;;;;21.07;39.89;102347.31;5090783;28;20057;-64
2022/06/14 05:08:58;;;;;;;1.75;0.70;;;;;;;21.07;39.73;102355.44;5109746;28;20055;-63
2022/06/14 05:11:30;;;;;;;3.60;0.90;;;;;;;21.06;39.66;102351.88;5094773;28;20035;-62
2022/06/14 05:14:03;;;;;;;2.25;0.80;;;;;;;21.09;39.90;102361.56;5088980;28;20096;-63
2022/06/14 05:16:36;;;;;;;2.58;0.77;;;;;;;21.09;40.04;102358.84;5088759;28;20102;-64
2022/06/14 05:19:10;;;;;;;2.58;1.00;;;;;;;21.08;39.63;102359.88;5106605;28;20070;-64
2022/06/14 05:21:49;;;;;;;2.05;0.85;;;;;;;21.08;40.08;102362.56;5087903;28;20461;-64
2022/06/14 05:24:15;;;;;;;3.10;1.20;;;;;;;21.07;39.79;102366.25;5088706;28;20103;-62
2022/06/14 05:26:45;;;;;;;2.08;1.10;;;;;;;21.08;40.00;102365.28;5089261;28;20050;-63
2022/06/14 05:29:19;;;;;;;4.38;1.05;;;;;;;21.08;40.14;102365.28;5088282;28;20032;-63
2022/06/14 05:31:50;;;;;;;1.65;0.90;;;;;;;21.07;40.15;102369.84;5106503;28;20034;-63
2022/06/14 05:34:33;;;;;;;1.92;0.88;;;;;;;21.07;40.09;102369.84;5106475;28;20039;-63
2022/06/14 05:37:14;;;;;;;1.98;1.02;;;;;;;20.99;39.78;102356.19;5088518;28;20096;-64
2022/06/14 05:39:46;;;;;;;2.42;0.90;;;;;;;21.07;40.03;102367.13;5106450;28;20039;-64
2022/06/14 05:42:20;;;;;;;2.25;0.70;;;;;;;21.07;40.21;102368.94;5087819;28;20582;-63
2022/06/14 05:44:48;;;;;;;3.88;1.33;;;;;;;21.07;39.96;102372.53;5088248;28;20622;-64
2022/06/14 05:47:21;;;;;;;3.60;1.15;;;;;;;21.08;40.29;102373.38;5088188;28;20036;-62
2022/06/14 05:49:59;;;;;;;1.88;0.90;;;;;;;21.08;40.49;102371.53;5087770;28;20050;-62
2022/06/14 05:52:40;;;;;;;4.03;1.10;;;;;;;21.08;40.46;102373.38;5071043;28;20039;-61
2022/06/14 05:55:29;;;;;;;2.15;0.90;;;;;;;21.07;40.41;102369.84;5087994;28;20032;-62
2022/06/14 05:58:06;;;;;;;1.63;0.93;;;;;;;21.01;40.70;102364.16;5092727;28;20046;-62
2022/06/14 06:00:51;;;;;;;3.05;1.38;;;;;;;21.08;40.54;102370.69;5105916;28;20472;-63
2022/06/14 06:03:22;;;;;;;2.88;1.35;;;;;;;21.08;40.27;102373.38;5087879;28;20024;-63
2022/06/14 06:05:56;;;;;;;3.58;1.40;;;;;;;21.07;40.69;102369.84;5105481;28;20028;-62
2022/06/14 06:08:37;;;;;;;2.30;0.90;;;;;;;21.09;40.40;102372.38;5087811;28;20020;-63
2022/06/14 06:11:09;;;;;;;6.07;1.00;;;;;;;21.04;40.69;102364.72;5117741;28;20027;-63
2022/06/14 06:13:40;;;;;;;1.80;0.85;;;;;;;21.01;40.54;102365.00;5096293;28;20114;-63
2022/06/14 06:16:12;;;;;;;2.55;1.10;;;;;;;21.09;40.59;102384.03;5107361;28;20039;-63
2022/06/14 06:18:45;;;;;;;2.97;1.23;;;;;;;21.11;40.40;102378.47;5108270;28;20031;-63
2022/06/14 06:21:23;;;;;;;3.15;1.02;;;;;;;21.10;40.92;102377.63;5107240;28;20028;-63
2022/06/14 06:23:55;;;;;;;3.33;1.10;;;;;;;21.12;40.94;102383.75;5126178;28;20023;-63
2022/06/14 06:26:22;;;;;;;4.95;1.70;;;;;;;21.05;40.90;102374.53;5107902;28;20031;-65
2022/06/14 06:28:55;;;;;;;4.75;1.48;;;;;;;21.14;40.68;102380.91;5090900;28;20024;-63
2022/06/14 06:31:24;;;;;;;3.35;1.33;;;;;;;21.14;40.90;102389.84;5107620;28;20026;-63
2022/06/14 06:33:52;;;;;;;2.22;1.20;;;;;;;21.14;40.94;102387.16;5107674;28;20020;-63
2022/06/14 06:36:32;;;;;;;5.35;1.40;;;;;;;21.14;41.00;102392.56;5107144;28;20031;-62
2022/06/14 06:39:19;;;;;;;2.70;1.10;;;;;;;21.15;40.85;102396.13;5125892;28;20039;-62
2022/06/14 06:41:54;;;;;;;2.72;1.00;;;;;;;21.16;40.66;102395.13;5122962;28;20051;-64
2022/06/14 06:44:22;;;;;;;3.55;1.48;;;;;;;21.12;40.96;102394.56;5087989;28;20035;-64
2022/06/14 06:46:53;;;;;;;3.72;1.20;;;;;;;21.15;41.14;102388.88;5105317;28;20024;-63
2022/06/14 06:49:23;;;;;;;4.45;1.33;;;;;;;21.15;41.07;102388.88;5087088;28;20024;-62
2022/06/14 06:51:52;;;;;;;1.67;1.15;;;;;;;21.17;40.70;102394.13;5086729;28;20035;-63
2022/06/14 06:54:25;;;;;;;2.58;1.10;;;;;;;21.18;41.05;102382.31;5087012;28;20032;-62
2022/06/14 06:56:53;;;;;;;3.40;1.08;;;;;;;21.18;40.97;102387.72;5087219;28;20027;-63
2022/06/14 06:59:21;;;;;;;3.50;1.05;;;;;;;21.18;40.93;102387.72;5086954;28;20023;-62
2022/06/14 07:01:48;;;;;;;2.72;1.23;;;;;;;21.18;41.15;102390.41;5104836;28;20083;-63
2022/06/14 07:05:03;;;;;;;4.82;1.58;;;;;;;21.19;41.28;102394.81;5105126;28;20032;-63
2022/06/14 07:07:18;;;;;;;5.82;1.45;;;;;;;21.14;41.15;102386.31;5105264;28;20476;-63
2022/06/14 07:09:52;;;;;;;3.47;1.13;;;;;;;21.16;40.95;102382.47;5087811;28;20020;-62
2022/06/14 07:12:22;;;;;;;2.90;1.30;;;;;;;21.20;41.03;102389.28;5117691;28;20032;-63
2022/06/14 07:15:00;;;;;;;3.25;1.13;;;;;;;21.21;41.21;102393.69;5105119;28;20054;-63
2022/06/14 07:17:37;;;;;;;2.70;1.15;;;;;;;20.96;41.05;102345.66;5087178;28;20047;-63
2022/06/14 07:20:22;;;;;;;2.53;1.23;;;;;;;21.23;41.09;102394.38;5086616;28;20497;-63
2022/06/14 07:22:51;;;;;;;2.55;0.90;;;;;;;21.24;41.19;102387.13;5104998;28;20564;-63
2022/06/14 07:25:33;;;;;;;;;;;;;;;21.24;40.89;102389.84;5105302;28;20028;-63
2022/06/14 07:28:18;;;;;;;2.83;1.20;;;;;;;21.24;41.04;102389.84;5090514;28;19914;-63
2022/06/14 07:30:49;;;;;;;1.98;1.00;;;;;;;21.21;41.04;102384.72;5090396;28;20036;-63
2022/06/14 07:33:16;;;;;;;3.00;1.08;;;;;;;21.22;41.03;102394.53;5090761;28;20046;-62
2022/06/14 07:35:46;;;;;;;2.90;1.00;;;;;;;21.22;40.83;102394.53;5090044;28;20087;-63
2022/06/14 07:38:25;;;;;;;3.30;0.95;;;;;;;21.21;40.85;102393.69;5090857;28;20021;-63
2022/06/14 07:40:59;;;;;;;2.67;1.00;;;;;;;21.23;41.16;102404.34;5108704;28;20031;-63
2022/06/14 07:43:44;;;;;;;3.25;1.35;;;;;;;21.22;40.83;102397.25;5108282;28;20043;-62
2022/06/14 07:46:22;;;;;;;6.10;1.65;;;;;;;21.17;40.76;102391.44;5108750;28;20024;-64
2022/06/14 07:49:00;;;;;;;3.97;1.27;;;;;;;21.19;41.22;102389.41;5090360;28;20102;-62
2022/06/14 07:51:31;;;;;;;8.35;1.38;;;;;;;21.21;40.83;102398.25;5107910;28;20028;-62
2022/06/14 07:54:22;;;;;;;3.45;1.27;;;;;;;21.22;41.16;102399.94;5108349;28;20080;-63
2022/06/14 07:57:19;;;;;;;3.97;1.33;;;;;;;21.24;41.14;102400.66;5090409;28;20092;-64
2022/06/14 07:59:57;;;;;;;3.50;1.20;;;;;;;21.26;40.95;102395.09;5069644;28;20386;-63
2022/06/14 08:02:33;;;;;;;4.13;1.48;;;;;;;21.27;40.67;102400.34;5108453;28;20016;-62
2022/06/14 08:05:06;;;;;;;2.33;1.00;;;;;;;21.30;40.79;102394.66;5089556;28;20032;-63
2022/06/14 08:07:31;;;;;;;2.35;1.00;;;;;;;21.31;40.70;102398.19;5090149;28;20085;-63
2022/06/14 08:10:02;;;;;;;4.65;1.30;;;;;;;21.33;40.80;102391.69;5110770;28;20031;-63
2022/06/14 08:12:36;;;;;;;3.10;1.00;;;;;;;21.35;40.98;102397.78;5109160;28;20035;-63
2022/06/14 08:15:08;;;;;;;1.98;1.00;;;;;;;21.37;40.53;102394.94;5110297;28;20027;-63
2022/06/14 08:17:42;;;;;;;3.25;1.15;;;;;;;21.40;40.59;102391.94;5128879;28;20027;-62
2022/06/14 08:20:26;;;;;;;3.53;1.33;;;;;;;21.42;41.05;102396.19;5127926;28;20034;-63
2022/06/14 08:22:58;;;;;;;4.15;1.10;;;;;;;21.40;40.94;102384.66;5110483;28;20027;-63
2022/06/14 08:25:28;;;;;;;2.72;1.08;;;;;;;21.46;40.85;102400.31;5128128;28;20031;-62
2022/06/14 08:28:21;;;;;;;3.78;1.10;;;;;;;21.45;40.69;102401.31;5110507;28;20426;-63
2022/06/14 08:31:00;;;;;;;4.93;1.42;;;;;;;21.44;40.66;102398.75;5128073;28;20035;-62
2022/06/14 08:33:35;;;;;;;2.85;1.30;;;;;;;21.42;41.13;102390.78;5109933;28;20039;-62
2022/06/14 08:36:05;;;;;;;2.05;1.00;;;;;;;21.41;40.77;102397.22;5109258;28;20032;-63
2022/06/14 08:38:41;;;;;;;3.97;0.98;;;;;;;21.40;40.71;102392.78;5127288;28;20020;-63
2022/06/14 08:41:20;;;;;;;6.03;1.98;;;;;;;21.39;41.13;102388.38;5126054;28;20043;-63
2022/06/14 08:44:17;;;;;;;2.10;1.00;;;;;;;21.40;40.92;102394.63;5089236;28;20095;-63
2022/06/14 08:47:02;;;;;;;3.50;1.20;;;;;;;21.38;41.17;102391.25;5099285;28;20507;-63
2022/06/14 08:49:49;;;;;;;2.45;1.00;;;;;;;21.38;41.60;102391.25;5109580;28;20081;-63
2022/06/14 08:52:32;;;;;;;4.03;1.10;;;;;;;21.37;41.71;102392.25;5127784;28;20042;-63
2022/06/14 08:55:11;;;;;;;2.35;0.95;;;;;;;21.37;41.44;102386.84;5127697;28;20071;-63
2022/06/14 08:57:56;;;;;;;2.72;1.35;;;;;;;21.37;41.58;102384.13;5109731;28;20019;-63
2022/06/14 09:00:38;;;;;;;2.35;0.90;;;;;;;21.34;41.70;102377.16;5109406;28;20043;-63
2022/06/14 09:03:52;;;;;;;2.35;0.98;;;;;;;21.39;41.76;102387.53;5127830;28;20381;-63
2022/06/14 09:06:20;;;;;;;2.60;0.98;;;;;;;21.38;42.22;102378.56;5114088;28;20542;-63
2022/06/14 09:08:50;;;;;;;5.00;1.42;;;;;;;21.40;42.37;102373.84;5107123;28;20058;-63
2022/06/14 09:11:46;;;;;;;1.92;0.90;;;;;;;21.40;42.31;102376.53;5102504;28;20032;-63
2022/06/14 09:14:30;;;;;;;2.05;1.08;;;;;;;21.41;42.00;102378.28;5127324;28;20034;-65
2022/06/14 09:17:46;;;;;;;1.88;0.80;;;;;;;21.42;41.92;102374.56;5127500;28;20051;-63
2022/06/14 09:20:40;;;;;;;3.38;0.90;;;;;;;21.44;42.18;102371.69;5115402;28;20078;-63
2022/06/14 09:23:21;;;;;;;2.35;0.85;;;;;;;21.45;42.16;102373.38;5127363;28;20023;-63
2022/06/14 09:26:00;;;;;;;1.95;1.02;;;;;;;21.44;41.85;102366.28;5109028;28;20031;-63
2022/06/14 09:28:44;;;;;;;;;;;;;;;21.44;42.17;102372.53;5109705;28;20457;-63
2022/06/14 09:31:17;;;;;;;3.60;1.00;;;;;;;21.43;42.01;102378.97;5126734;28;19914;-63
2022/06/14 09:34:20;;;;;;;2.20;0.90;;;;;;;21.44;41.86;102375.25;5127158;28;20525;-63
2022/06/14 09:37:04;;;;;;;2.78;0.95;;;;;;;21.45;41.88;102370.69;5115003;28;20039;-65
2022/06/14 09:39:39;;;;;;;3.60;1.27;;;;;;;21.45;41.59;102366.16;5105880;28;20083;-63
2022/06/14 09:42:22;;;;;;;2.92;0.98;;;;;;;21.47;42.08;102360.56;5105933;28;20095;-63
2022/06/14 09:45:21;;;;;;;3.28;1.10;;;;;;;21.48;41.61;102373.09;5106385;28;20028;-64
2022/06/14 09:48:24;;;;;;;3.90;1.27;;;;;;;21.50;41.91;102362.13;5106404;28;20031;-63
2022/06/14 09:51:07;;;;;;;2.55;0.80;;;;;;;21.53;41.90;102362.66;5105580;28;20031;-63
2022/06/14 09:53:58;;;;;;;2.05;0.82;;;;;;;21.52;42.08;102352.00;5106264;28;20059;-63
2022/06/14 09:57:01;;;;;;;2.75;1.08;;;;;;;21.57;42.17;102355.94;5105949;28;20024;-61
2022/06/14 09:59:35;;;;;;;1.58;0.90;;;;;;;21.57;42.36;102358.66;5105964;28;20020;-62
2022/06/14 10:02:04;;;;;;;1.63;0.70;;;;;;;21.59;42.06;102363.94;5071140;28;20064;-63
2022/06/14 10:05:03;;;;;;;1.42;0.80;;;;;;;21.60;41.98;102355.66;5105999;28;20381;-63
2022/06/14 10:07:56;;;;;;;2.47;0.75;;;;;;;21.60;41.90;102358.34;5125715;28;20039;-63
2022/06/14 10:10:40;;;;;;;2.88;1.27;;;;;;;21.60;42.08;102352.09;5101241;28;20024;-63
2022/06/14 10:13:05;;;;;;;2.90;0.82;;;;;;;21.59;41.91;102361.22;5118740;28;20107;-62
2022/06/14 10:15:43;;;;;;;2.00;0.70;;;;;;;21.58;41.80;102359.50;5126096;28;20026;-63
2022/06/14 10:18:39;;;;;;;1.53;0.83;;;;;;;21.60;42.22;102357.50;5108276;28;20016;-63
2022/06/14 10:21:13;;;;;;;2.42;0.85;;;;;;;21.59;42.06;102353.09;5125511;28;20255;-63
2022/06/14 10:23:57;;;;;;;2.47;0.90;;;;;;;21.59;42.08;102353.09;5108111;28;20031;-63
2022/06/14 10:29:36;;;;;;;1.95;0.70;;;;;;;21.50;42.21;102335.94;5126139;28;20038;-63
2022/06/14 10:32:10;;;;;;;2.17;0.80;;;;;;;21.58;42.38;102346.84;5125891;28;20027;-63
2022/06/14 10:34:55;;;;;;;1.95;0.90;;;;;;;21.59;42.29;102348.53;5107651;28;20020;-63
2022/06/14 10:37:43;;;;;;;2.72;0.90;;;;;;;21.59;42.08;102343.13;5088842;28;20050;-63
2022/06/14 10:40:31;;;;;;;1.25;0.70;;;;;;;21.58;42.28;102345.97;5087325;28;20560;-64
2022/06/14 10:43:14;;;;;;;3.33;1.35;;;;;;;21.58;42.40;102338.72;5104961;28;20054;-63
2022/06/14 10:45:46;;;;;;;1.65;1.00;;;;;;;21.59;42.14;102345.84;5105218;28;20040;-63
2022/06/14 10:48:30;;;;;;;2.65;0.90;;;;;;;21.59;42.34;102343.13;5105468;28;20034;-63
2022/06/14 10:51:07;;;;;;;3.20;0.90;;;;;;;21.61;42.41;102335.69;5104603;28;20036;-64
2022/06/14 10:53:54;;;;;;;4.10;1.00;;;;;;;21.62;42.19;102334.72;5105231;28;20032;-64
2022/06/14 10:57:10;;;;;;;2.25;0.90;;;;;;;21.62;42.42;102333.84;5105215;28;20032;-64
2022/06/14 11:00:05;;;;;;;1.92;0.93;;;;;;;21.62;42.30;102318.47;5022808;28;20034;-63
2022/06/14 11:02:55;;;;;;;2.38;1.00;;;;;;;21.60;42.40;102322.31;5028017;28;20033;-63
2022/06/14 11:05:23;;;;;;;2.17;1.00;;;;;;;21.63;42.19;102320.16;5031651;28;20108;-63
2022/06/14 11:08:26;;;;;;;1.58;0.70;;;;;;;21.66;42.26;102311.75;5049366;28;20029;-63
2022/06/14 11:11:10;;;;;;;3.38;1.00;;;;;;;21.68;42.44;102317.00;5038628;28;20176;-63
2022/06/14 11:13:44;;;;;;;3.50;1.15;;;;;;;21.71;42.22;102314.84;5028993;28;20053;-63
2022/06/14 11:16:26;;;;;;;1.75;0.75;;;;;;;21.71;42.47;102317.56;5012987;28;20063;-63
2022/06/14 11:22:04;;;;;;;2.25;0.82;;;;;;;21.73;42.08;102311.13;4969881;28;20046;-63
2022/06/14 11:24:49;;;;;;;3.05;0.93;;;;;;;21.74;42.34;102300.13;4954476;29;20031;-64
2022/06/14 11:27:26;;;;;;;1.70;0.70;;;;;;;21.74;42.29;102300.13;4960772;28;20066;-64
2022/06/14 11:30:01;;;;;;;1.75;0.98;;;;;;;21.75;42.13;102293.75;4977096;28;20083;-63
2022/06/14 11:32:54;;;;;;;1.15;0.60;;;;;;;21.78;42.20;102297.97;5048817;28;20032;-63
2022/06/14 11:35:45;;;;;;;1.55;0.60;;;;;;;21.78;42.18;102300.69;5040415;28;20025;-63
2022/06/14 11:38:29;;;;;;;1.98;0.70;;;;;;;21.78;42.05;102295.25;5032400;28;20031;-63
2022/06/14 11:40:59;;;;;;;1.08;0.70;;;;;;;21.76;42.50;102291.88;5032087;28;20500;-63
2022/06/14 11:44:02;;;;;;;1.25;0.80;;;;;;;21.75;42.21;102288.31;5031681;28;20046;-63
2022/06/14 11:46:52;;;;;;;1.48;0.80;;;;;;;21.75;42.32;102290.16;5048620;28;20108;-63
2022/06/14 11:49:41;;;;;;;2.00;0.80;;;;;;;21.75;42.35;102285.63;5032355;28;20060;-64
2022/06/14 11:52:19;;;;;;;0.90;0.80;;;;;;;21.77;42.29;102280.03;5047954;28;20160;-64
2022/06/14 11:55:00;;;;;;;1.33;0.80;;;;;;;21.77;42.54;102280.03;5050600;28;20100;-63
2022/06/14 11:57:47;;;;;;;1.52;0.70;;;;;;;21.78;42.45;102274.47;5093383;28;20092;-63
2022/06/14 12:00:23;;;;;;;2.15;0.77;;;;;;;21.78;42.76;102276.31;5111288;28;20027;-63
2022/06/14 12:03:14;;;;;;;1.90;0.63;;;;;;;21.74;42.44;102262.22;5111487;28;20088;-63
2022/06/14 12:05:48;;;;;;;1.98;0.82;;;;;;;21.80;42.73;102269.75;5119538;28;20139;-64
2022/06/14 12:08:19;;;;;;;1.45;1.10;;;;;;;21.80;42.63;102268.91;5096423;28;20031;-64
2022/06/14 12:11:06;;;;;;;2.47;0.75;;;;;;;21.81;42.67;102274.16;5122161;28;20168;-63
2022/06/14 12:13:59;;;;;;;3.03;0.95;;;;;;;21.82;42.67;102266.88;5107700;28;20031;-63
2022/06/14 12:16:40;;;;;;;0.95;0.60;;;;;;;21.82;42.92;102270.44;5108055;28;20043;-61
2022/06/14 12:19:08;;;;;;;1.95;0.90;;;;;;;21.82;42.89;102269.59;5108276;28;20039;-63
2022/06/14 12:21:46;;;;;;;1.20;0.70;;;;;;;21.81;42.82;102263.31;5107028;28;20035;-65
2022/06/14 12:24:17;;;;;;;1.83;0.60;;;;;;;21.81;42.91;102259.78;5108381;28;20031;-63